createdAt,value
2022-12-04T00:02:45.161Z,102454.97
2022-12-04T00:07:44.308Z,102449.50
2022-12-04T00:12:44.534Z,102458.22
2022-12-04T00:17:43.386Z,102454.13
2022-12-04T00:22:42.280Z,102468.91
2022-12-04T00:27:41.261Z,102466.44
2022-12-04T00:32:41.487Z,102463.78
2022-12-04T00:37:40.385Z,102467.25
2022-12-04T00:42:39.268Z,102467.31
2022-12-04T00:47:38.297Z,102468.28
2022-12-04T00:52:38.560Z,102478.78
2022-12-04T00:57:37.466Z,102478.94
2022-12-04T01:02:36.389Z,102474.69
2022-12-04T01:07:35.382Z,102472.09
2022-12-04T01:12:37.017Z,102471.28
2022-12-04T01:17:35.896Z,102460.00
2022-12-04T01:22:34.867Z,102467.84
2022-12-04T01:27:34.406Z,102473.09
2022-12-04T01:32:34.728Z,102469.69
2022-12-04T01:37:33.863Z,102468.03
2022-12-04T01:42:32.930Z,102454.16
2022-12-04T01:47:31.806Z,102463.63
2022-12-04T01:52:32.568Z,102458.41
2022-12-04T01:57:33.837Z,102457.53
2022-12-04T02:02:36.827Z,102452.19
2022-12-04T02:07:39.474Z,102450.41
2022-12-04T02:12:48.802Z,102443.47
2022-12-04T02:17:56.200Z,102446.94
2022-12-04T02:23:24.448Z,102434.84
2022-12-04T02:28:31.169Z,102434.00
2022-12-04T02:33:35.605Z,102440.94
2022-12-04T02:38:38.754Z,102436.63
2022-12-04T02:43:43.939Z,102454.06
2022-12-04T02:48:45.785Z,102441.94
2022-12-04T02:53:49.048Z,102434.13
2022-12-04T02:58:54.414Z,102434.13
2022-12-04T03:03:56.639Z,102453.19
2022-12-04T03:09:02.454Z,102462.69
2022-12-04T03:14:10.241Z,102457.56
2022-12-04T03:19:12.049Z,102456.66
2022-12-04T03:24:16.328Z,102448.91
2022-12-04T03:29:21.073Z,102441.09
2022-12-04T03:34:28.590Z,102441.03
2022-12-04T03:39:35.807Z,102435.88
2022-12-04T03:44:42.495Z,102431.50
2022-12-04T03:49:47.029Z,102422.84
2022-12-04T03:54:51.174Z,102425.44
2022-12-04T03:59:56.842Z,102428.00
2022-12-04T04:04:59.624Z,102426.19
2022-12-04T04:10:03.753Z,102419.31
2022-12-04T04:15:27.535Z,102429.75
2022-12-04T04:20:55.754Z,102430.56
2022-12-04T04:25:56.553Z,102422.78
2022-12-04T04:31:05.578Z,102427.16
2022-12-04T04:36:12.017Z,102440.91
2022-12-04T04:41:17.315Z,102438.31
2022-12-04T04:46:22.511Z,102442.56
2022-12-04T04:51:22.306Z,102443.53
2022-12-04T04:56:22.289Z,102437.31
2022-12-04T05:01:25.791Z,102448.63
2022-12-04T05:06:24.724Z,102447.66
2022-12-04T05:11:23.520Z,102447.84
2022-12-04T05:16:23.988Z,102445.31
2022-12-04T05:21:22.971Z,102441.88
2022-12-04T05:26:21.829Z,102439.31
2022-12-04T05:31:20.710Z,102441.78
2022-12-04T05:36:20.959Z,102440.97
2022-12-04T05:41:19.770Z,102447.06
2022-12-04T05:46:18.673Z,102446.31
2022-12-04T05:51:20.173Z,102458.50
2022-12-04T05:56:18.952Z,102469.81
2022-12-04T06:01:21.143Z,102467.22
2022-12-04T06:06:22.968Z,102468.88
2022-12-04T06:11:24.539Z,102469.78
2022-12-04T06:16:26.385Z,102483.69
2022-12-04T06:21:31.368Z,102481.13
2022-12-04T06:26:30.585Z,102476.75
2022-12-04T06:31:31.214Z,102475.03
2022-12-04T06:36:32.081Z,102483.63
2022-12-04T06:41:31.582Z,102491.44
2022-12-04T06:46:32.710Z,102492.41
2022-12-04T06:51:35.151Z,102488.91
2022-12-04T06:56:35.386Z,102495.84
2022-12-04T07:01:36.106Z,102494.13
2022-12-04T07:06:37.810Z,102494.97
2022-12-04T07:11:36.986Z,102502.69
2022-12-04T07:16:40.846Z,102511.47
2022-12-04T07:21:42.382Z,102513.13
2022-12-04T07:26:41.483Z,102520.06
2022-12-04T07:31:40.648Z,102513.22
2022-12-04T07:36:41.818Z,102512.44
2022-12-04T07:41:40.619Z,102513.31
2022-12-04T07:46:40.525Z,102513.25
2022-12-04T07:51:39.380Z,102528.97
2022-12-04T07:56:39.506Z,102519.53
2022-12-04T08:01:38.440Z,102528.19
2022-12-04T08:06:37.383Z,102526.47
2022-12-04T08:11:36.311Z,102519.47
2022-12-04T08:16:36.767Z,102513.34
2022-12-04T08:21:35.705Z,102520.25
2022-12-04T08:26:34.861Z,102513.31
2022-12-04T08:31:36.905Z,102503.78
2022-12-04T08:36:36.350Z,102503.84
2022-12-04T08:41:35.393Z,102501.22
2022-12-04T08:46:34.367Z,102503.84
2022-12-04T08:51:36.106Z,102488.28
2022-12-04T08:56:36.195Z,102483.06
2022-12-04T09:01:35.086Z,102483.09
2022-12-04T09:06:35.467Z,102491.75
2022-12-04T09:11:34.291Z,102484.81
2022-12-04T09:16:33.452Z,102475.22
2022-12-04T09:21:32.284Z,102466.56
2022-12-04T09:26:33.885Z,102462.22
2022-12-04T09:31:33.570Z,102457.84
2022-12-04T09:36:32.457Z,102453.53
2022-12-04T09:41:57.586Z,102436.16
2022-12-04T09:47:02.169Z,102428.31
2022-12-04T09:52:05.000Z,102417.84
2022-12-04T09:57:13.555Z,102414.31
2022-12-04T10:02:33.008Z,102408.25
2022-12-04T10:07:38.206Z,102398.66
2022-12-04T10:12:48.746Z,102388.13
2022-12-04T10:18:11.696Z,102397.66
2022-12-04T10:23:22.379Z,102392.50
2022-12-04T10:28:30.089Z,102384.59
2022-12-04T10:33:36.641Z,102390.78
2022-12-04T10:38:43.590Z,102394.25
2022-12-04T10:43:46.165Z,102388.06
2022-12-04T10:48:47.809Z,102377.72
2022-12-04T10:53:49.541Z,102381.13
2022-12-04T10:59:03.703Z,102371.66
2022-12-04T11:04:08.554Z,102366.41
2022-12-04T11:09:07.726Z,102359.34
2022-12-04T11:14:15.264Z,102358.47
2022-12-04T11:19:25.739Z,102358.47
2022-12-04T11:24:27.764Z,102345.41
2022-12-04T11:29:33.427Z,102346.34
2022-12-04T11:34:36.844Z,102332.44
2022-12-04T11:39:39.840Z,102336.78
2022-12-04T11:44:40.337Z,102331.47
2022-12-04T11:49:43.711Z,102336.56
2022-12-04T11:54:46.764Z,102327.72
2022-12-04T12:00:03.391Z,102319.19
2022-12-04T12:05:23.345Z,102306.13
2022-12-04T12:10:32.008Z,102319.94
2022-12-04T12:15:42.974Z,102298.22
2022-12-04T12:20:47.542Z,102306.09
2022-12-04T12:25:54.857Z,102312.19
2022-12-04T12:31:08.707Z,102297.31
2022-12-04T12:36:10.753Z,102298.16
2022-12-04T12:41:14.387Z,102290.41
2022-12-04T12:46:22.912Z,102292.31
2022-12-04T12:51:33.570Z,102298.34
2022-12-04T12:56:38.573Z,102293.81
2022-12-04T13:01:47.075Z,102297.25
2022-12-04T13:06:50.184Z,102295.41
2022-12-04T13:11:52.197Z,102311.84
2022-12-04T13:16:55.433Z,102309.56
2022-12-04T13:22:08.157Z,102313.72
2022-12-04T13:27:14.979Z,102306.13
2022-12-04T13:32:41.543Z,102313.78
2022-12-04T13:38:07.280Z,102314.56
2022-12-04T13:43:36.442Z,102316.50
2022-12-04T13:48:41.237Z,102310.31
2022-12-04T13:53:40.506Z,102313.78
2022-12-04T13:58:39.519Z,102318.91
2022-12-04T14:03:49.172Z,102313.78
2022-12-04T14:08:48.080Z,102315.44
2022-12-04T14:13:52.155Z,102328.53
2022-12-04T14:18:55.768Z,102327.72
2022-12-04T14:23:54.584Z,102328.59
2022-12-04T14:28:55.094Z,102326.09
2022-12-04T14:34:00.341Z,102324.31
2022-12-04T14:39:27.664Z,102330.53
2022-12-04T14:44:30.112Z,102326.22
2022-12-04T14:49:40.480Z,102331.41
2022-12-04T14:54:50.099Z,102335.03
2022-12-04T14:59:51.092Z,102341.06
2022-12-04T15:04:52.423Z,102335.81
2022-12-04T15:10:13.742Z,102339.38
2022-12-04T15:15:19.631Z,102336.81
2022-12-04T15:20:21.749Z,102341.19
2022-12-04T15:25:23.892Z,102341.16
2022-12-04T15:30:25.372Z,102335.03
2022-12-04T15:35:28.965Z,102335.88
2022-12-04T15:40:29.155Z,102347.16
2022-12-04T15:45:51.589Z,102356.00
2022-12-04T15:50:59.472Z,102362.00
2022-12-04T15:56:02.405Z,102359.53
2022-12-04T16:01:04.742Z,102372.59
2022-12-04T16:06:08.359Z,102369.09
2022-12-04T16:11:08.088Z,102372.53
2022-12-04T16:16:09.487Z,102358.66
2022-12-04T16:21:15.391Z,102367.31
2022-12-04T16:26:15.617Z,102369.03
2022-12-04T16:31:15.254Z,102363.84
2022-12-04T16:41:42.181Z,102367.31
2022-12-04T16:46:43.224Z,102366.50
2022-12-04T16:51:56.358Z,102365.63
2022-12-04T16:56:56.372Z,102365.59
2022-12-04T17:02:43.380Z,102363.88
2022-12-04T17:07:53.534Z,102364.75
2022-12-04T17:12:56.931Z,102353.53
2022-12-04T17:17:57.272Z,102363.94
2022-12-04T17:23:20.956Z,102364.81
2022-12-04T17:28:23.735Z,102366.53
2022-12-04T17:33:23.983Z,102365.66
2022-12-04T17:38:28.866Z,102374.38
2022-12-04T17:43:36.256Z,102376.97
2022-12-04T17:48:35.174Z,102369.13
2022-12-04T17:53:35.659Z,102377.88
2022-12-04T17:58:35.980Z,102379.59
2022-12-04T18:03:35.698Z,102370.00
2022-12-04T18:08:35.912Z,102385.63
2022-12-04T18:13:35.657Z,102384.81
2022-12-04T18:18:46.796Z,102393.50
2022-12-04T18:23:47.157Z,102391.75
2022-12-04T18:28:46.780Z,102392.59
2022-12-04T18:33:46.713Z,102386.56
2022-12-04T18:38:47.590Z,102384.81
2022-12-04T18:43:52.338Z,102386.50
2022-12-04T18:48:54.381Z,102395.19
2022-12-04T18:53:57.272Z,102404.72
2022-12-04T18:59:00.176Z,102408.16
2022-12-04T19:04:00.689Z,102411.63
2022-12-04T19:09:02.856Z,102409.00
2022-12-04T19:14:06.607Z,102412.47
2022-12-04T19:19:09.384Z,102412.47
2022-12-04T19:24:11.125Z,102409.00
2022-12-04T19:29:13.034Z,102415.97
2022-12-04T19:34:11.939Z,102417.69
2022-12-04T19:39:12.716Z,102414.25
2022-12-04T19:44:46.619Z,102414.25
2022-12-04T19:49:30.785Z,102411.66
2022-12-04T19:54:31.542Z,102412.47
2022-12-04T19:59:34.711Z,102410.75
2022-12-04T20:04:36.161Z,102402.88
2022-12-04T20:09:36.657Z,102399.44
2022-12-04T20:14:35.665Z,102402.88
2022-12-04T20:19:34.712Z,102395.88
2022-12-04T20:24:33.785Z,102395.00
2022-12-04T20:29:34.045Z,102390.69
2022-12-04T20:34:33.352Z,102384.59
2022-12-04T20:39:32.324Z,102383.75
2022-12-04T20:44:35.059Z,102370.72
2022-12-04T20:49:34.100Z,102379.47
2022-12-04T20:54:40.778Z,102370.72
2022-12-04T20:59:44.333Z,102375.94
2022-12-04T21:04:43.184Z,102384.63
2022-12-04T21:09:42.081Z,102384.66
2022-12-04T21:15:00.416Z,102375.91
2022-12-04T21:20:02.836Z,102375.94
2022-12-04T21:25:08.714Z,102378.59
2022-12-04T21:30:29.161Z,102376.84
2022-12-04T21:35:28.429Z,102365.53
2022-12-04T21:41:01.294Z,102368.16
2022-12-04T21:46:34.334Z,102363.75
2022-12-04T21:51:56.393Z,102365.56
2022-12-04T21:56:53.404Z,102369.00
2022-12-04T22:01:54.243Z,102363.81
2022-12-04T22:06:53.342Z,102358.63
2022-12-04T22:11:52.367Z,102356.06
2022-12-04T22:16:54.364Z,102341.28
2022-12-04T22:21:53.365Z,102348.19
2022-12-04T22:26:52.272Z,102357.78
2022-12-04T22:31:51.426Z,102349.03
2022-12-04T22:36:52.415Z,102350.75
2022-12-04T22:41:51.466Z,102338.53
2022-12-04T22:46:50.507Z,102339.47
2022-12-04T22:51:49.516Z,102342.94
2022-12-04T22:56:49.938Z,102333.38
2022-12-04T23:01:48.953Z,102329.94
2022-12-04T23:06:50.103Z,102333.44
2022-12-04T23:11:54.030Z,102342.06
2022-12-04T23:16:53.185Z,102343.81
2022-12-04T23:21:57.032Z,102333.41
2022-12-04T23:26:57.784Z,102329.16
2022-12-04T23:31:56.755Z,102332.63
2022-12-04T23:36:55.632Z,102342.16
2022-12-04T23:41:54.531Z,102325.69
2022-12-04T23:46:54.811Z,102317.03
2022-12-04T23:51:53.864Z,102324.03
2022-12-04T23:56:52.955Z,102331.81
